Time;durP1;ratioP1;P1;durP2;ratioP2;P2;SDS_P1;SDS_P2;PMS_P1;PMS_P2;Temp;Humidity;BMP_temperature;BMP_pressure;BME280_temperature;BME280_humidity;BME280_pressure;Samples;Min_cycle;Max_cycle;Signal;HPM_P1;HPM_P2
2022/05/24 04:26:09;;;;;;;8.63;6.07;;;;;;;12.63;100.00;99831.75;6635270;26;136420;-87
2022/05/24 04:29:12;;;;;;;6.82;6.12;;;;;;;12.63;100.00;99831.75;6612723;26;34035;-87
2022/05/24 04:32:16;;;;;;;10.27;5.75;;;;;;;12.16;100.00;99835.78;6613586;26;34397;-88
2022/05/24 04:35:18;;;;;;;8.15;5.72;;;;;;;12.21;100.00;99830.97;6595195;27;32431;-88
2022/05/24 04:38:21;;;;;;;6.70;5.70;;;;;;;12.28;100.00;99829.66;6598323;26;33961;-87
2022/05/24 04:44:58;;;;;;;5.57;5.07;;;;;;;12.12;100.00;99830.63;6596260;27;33544;-87
2022/05/24 04:48:01;;;;;;;7.68;5.60;;;;;;;12.13;100.00;99835.00;6594976;27;34157;-88
2022/05/24 04:51:03;;;;;;;8.23;5.80;;;;;;;12.12;100.00;99837.78;6598963;27;32569;-87
2022/05/24 04:54:06;;;;;;;6.40;5.72;;;;;;;12.11;100.00;99834.25;6596199;27;33530;-87
2022/05/24 04:57:12;;;;;;;8.43;5.85;;;;;;;12.10;100.00;99827.25;6595930;27;32797;-87
2022/05/24 05:00:16;;;;;;;6.40;5.20;;;;;;;12.09;100.00;99830.84;6613370;27;34030;-86
2022/05/24 05:03:22;;;;;;;6.05;5.43;;;;;;;12.18;100.00;99837.38;6613710;27;33812;-86
2022/05/24 05:06:26;;;;;;;6.90;5.87;;;;;;;12.16;100.00;99841.91;6594243;27;33979;-85
2022/05/24 05:09:34;;;;;;;9.43;5.80;;;;;;;12.18;100.00;99834.72;6614636;27;33644;-85
2022/05/24 05:12:37;;;;;;;7.70;5.70;;;;;;;12.67;100.00;99841.25;6617960;27;33861;-86
2022/05/24 05:15:40;;;;;;;6.87;5.47;;;;;;;12.72;100.00;99837.44;6603515;27;33572;-86
2022/05/24 05:18:43;;;;;;;7.28;5.57;;;;;;;12.63;100.00;99845.06;6621491;26;33587;-86
2022/05/24 05:21:46;;;;;;;8.05;5.75;;;;;;;12.62;100.00;99853.16;6618906;27;34166;-85
2022/05/24 05:24:51;;;;;;;6.90;6.03;;;;;;;12.70;100.00;99860.59;6612556;27;33707;-87
2022/05/24 05:27:54;;;;;;;8.43;5.95;;;;;;;12.68;100.00;99852.75;6608917;26;34042;-86
2022/05/24 05:31:17;;;;;;;7.72;6.43;;;;;;;12.45;100.00;99854.25;6609142;26;35257;-89
2022/05/24 05:34:21;;;;;;;10.48;6.82;;;;;;;12.19;100.00;99851.50;6590822;27;32626;-87
2022/05/24 05:37:28;;;;;;;9.23;6.68;;;;;;;12.07;100.00;99861.16;6609445;26;34622;-87
2022/05/24 05:40:31;;;;;;;9.05;6.60;;;;;;;12.09;100.00;99859.22;6589556;27;33057;-85
2022/05/24 05:43:33;;;;;;;9.02;7.15;;;;;;;11.98;100.00;99866.03;6610701;26;34237;-87
2022/05/24 05:46:39;;;;;;;9.52;7.43;;;;;;;11.96;100.00;99856.47;6589579;26;32759;-87
2022/05/24 05:49:43;;;;;;;9.30;6.80;;;;;;;12.03;100.00;99856.94;6590426;27;32896;-88
2022/05/24 05:52:47;;;;;;;9.82;7.37;;;;;;;12.10;100.00;99860.94;6609314;27;34764;-88
2022/05/24 05:55:50;;;;;;;8.18;7.10;;;;;;;12.20;100.00;99864.72;6608943;27;35574;-89
2022/05/24 05:59:06;;;;;;;9.18;7.25;;;;;;;12.08;100.00;99871.66;6587155;26;32745;-89
2022/05/24 06:02:10;;;;;;;8.95;7.07;;;;;;;12.12;100.00;99873.19;6597156;27;33894;-86
2022/05/24 06:05:14;;;;;;;9.20;7.47;;;;;;;12.13;100.00;99879.37;6610228;27;34160;-87
2022/05/24 06:08:16;;;;;;;9.50;7.60;;;;;;;11.99;100.00;99881.06;6587807;27;33454;-86
2022/05/24 06:11:23;;;;;;;8.50;7.50;;;;;;;11.88;100.00;99867.59;6587042;27;32536;-84
2022/05/24 06:14:26;;;;;;;9.98;7.53;;;;;;;11.89;100.00;99871.97;6591670;27;33420;-84
2022/05/24 06:17:52;;;;;;;9.65;7.55;;;;;;;11.91;100.00;99870.06;6612296;27;34149;-84
2022/05/24 06:20:55;;;;;;;8.65;7.07;;;;;;;12.05;100.00;99868.34;6595834;27;33244;-82
2022/05/24 06:24:04;;;;;;;7.87;7.05;;;;;;;11.95;100.00;99871.56;6598008;27;32872;-85
2022/05/24 06:27:07;;;;;;;7.97;6.60;;;;;;;12.02;100.00;99868.53;6595524;27;33219;-84
2022/05/24 06:30:09;;;;;;;7.95;7.15;;;;;;;11.98;100.00;99875.84;6591559;27;32538;-85
2022/05/24 06:33:12;;;;;;;8.90;7.75;;;;;;;11.89;100.00;99874.62;6608769;27;33982;-84
2022/05/24 06:36:19;;;;;;;8.88;7.62;;;;;;;11.86;100.00;99874.81;6609447;27;33861;-84
2022/05/24 06:39:22;;;;;;;8.88;7.50;;;;;;;11.94;100.00;99869.88;6588561;27;32402;-82
2022/05/24 06:42:24;;;;;;;9.90;7.72;;;;;;;11.86;100.00;99874.81;6587027;27;32536;-83
2022/05/24 06:45:27;;;;;;;8.38;7.22;;;;;;;11.93;100.00;99872.63;6605343;27;33792;-85
2022/05/24 06:48:31;;;;;;;9.07;7.47;;;;;;;11.99;100.00;99882.88;6605217;27;34311;-84
2022/05/24 06:51:33;;;;;;;10.85;7.93;;;;;;;12.05;100.00;99881.63;6584869;27;33288;-85
2022/05/24 06:54:36;;;;;;;9.00;7.60;;;;;;;12.13;100.00;99879.37;6583571;27;33235;-87
2022/05/24 06:57:39;;;;;;;14.15;8.05;;;;;;;12.11;100.00;99878.59;6606668;27;33756;-90
2022/05/24 07:04:03;;;;;;;;;;;;;;;12.13;100.00;99877.53;6605690;27;34485;-88
2022/05/24 07:07:06;;;;;;;10.70;7.10;;;;;;;12.27;100.00;99878.44;6607544;27;34851;-86
2022/05/24 07:10:12;;;;;;;8.25;7.32;;;;;;;12.41;100.00;99874.88;6587835;27;32965;-87
2022/05/24 07:13:17;;;;;;;9.88;7.50;;;;;;;12.49;100.00;99875.25;6586712;27;33241;-86
2022/05/24 07:16:20;;;;;;;7.90;7.10;;;;;;;12.60;100.00;99871.03;6606794;27;33862;-86
2022/05/24 07:19:24;;;;;;;8.98;6.87;;;;;;;12.80;100.00;99867.03;6606066;27;33723;-86
2022/05/24 07:22:27;;;;;;;9.27;7.32;;;;;;;13.00;100.00;99873.69;6586266;27;34024;-86
2022/05/24 07:25:31;;;;;;;7.60;6.80;;;;;;;13.30;100.00;99874.31;6585698;27;34995;-86
2022/05/24 07:28:36;;;;;;;7.80;7.00;;;;;;;13.40;100.00;99871.87;6606975;27;33756;-85
2022/05/24 07:31:38;;;;;;;10.52;7.37;;;;;;;13.53;100.00;99870.06;6602152;27;32895;-86
2022/05/24 07:34:41;;;;;;;8.48;7.68;;;;;;;13.79;100.00;99875.41;6617833;27;34421;-86
2022/05/24 07:37:45;;;;;;;10.13;7.45;;;;;;;14.00;100.00;99880.13;6588257;27;32560;-84
2022/05/24 07:47:30;;;;;;;10.07;8.15;;;;;;;15.27;94.23;99875.22;6590224;27;33220;-85
2022/05/24 07:50:34;;;;;;;9.90;7.82;;;;;;;15.28;94.59;99881.44;6609289;27;33785;-86
2022/05/24 07:53:37;;;;;;;10.73;8.00;;;;;;;15.51;91.85;99879.63;6587479;27;32797;-87
2022/05/24 07:56:42;;;;;;;8.23;7.10;;;;;;;16.42;90.40;99874.19;6606142;27;35081;-87
2022/05/24 07:59:47;;;;;;;8.82;7.12;;;;;;;16.86;85.34;99873.28;6591821;27;32473;-86
2022/05/24 08:02:52;;;;;;;7.93;7.12;;;;;;;16.82;83.34;99877.19;6588862;27;32960;-87
2022/05/24 08:05:55;;;;;;;8.30;7.15;;;;;;;17.11;83.99;99873.91;6607000;27;33902;-87
2022/05/24 08:08:58;;;;;;;7.53;6.82;;;;;;;17.17;82.73;99891.28;6588019;27;33602;-87
2022/05/24 08:12:01;;;;;;;8.18;7.30;;;;;;;17.09;83.91;99890.12;6588354;27;33271;-87
2022/05/24 08:15:04;;;;;;;9.20;7.25;;;;;;;17.08;82.72;99890.25;6586989;27;32576;-87
2022/05/24 08:18:08;;;;;;;8.43;7.10;;;;;;;16.95;82.37;99893.94;6606718;27;34410;-85
2022/05/24 08:21:11;;;;;;;7.95;6.78;;;;;;;16.71;82.01;99883.47;6606275;27;35120;-86
2022/05/24 08:24:16;;;;;;;9.68;7.10;;;;;;;16.80;83.99;99874.62;6607269;27;34207;-87
2022/05/24 08:27:21;;;;;;;7.28;5.87;;;;;;;16.92;81.95;99883.50;6590664;27;34889;-91
2022/05/24 08:30:25;;;;;;;6.30;5.70;;;;;;;17.22;76.44;99871.16;6585364;27;34542;-91
2022/05/24 08:33:28;;;;;;;8.20;6.25;;;;;;;17.19;75.17;99876.78;6585666;27;33147;-92
2022/05/24 08:36:31;;;;;;;7.07;6.37;;;;;;;17.10;78.03;99880.25;6615432;27;33780;-87
2022/05/24 08:39:34;;;;;;;7.45;5.07;;;;;;;17.33;78.41;99875.59;6590499;27;34634;-86
2022/05/24 08:43:07;;;;;;;5.12;4.47;;;;;;;17.22;75.80;99884.56;6611958;27;33964;-86
2022/05/24 08:49:37;;;;;;;5.40;4.90;;;;;;;17.47;73.21;99871.72;6598722;27;33970;-86
2022/05/24 08:53:02;;;;;;;8.00;4.90;;;;;;;17.45;73.29;99878.19;6620126;27;34910;-86
2022/05/24 08:56:17;;;;;;;5.80;5.22;;;;;;;17.70;72.66;99871.53;6604656;27;36661;-86
2022/05/24 08:59:20;;;;;;;5.50;4.47;;;;;;;17.73;72.31;99879.31;6602378;27;34398;-87
2022/05/24 09:02:23;;;;;;;4.95;4.43;;;;;;;18.17;69.42;99870.16;6590958;27;32603;-85
2022/05/24 09:05:33;;;;;;;3.90;3.50;;;;;;;18.22;67.66;99869.72;6616465;27;34053;-86
2022/05/24 09:08:51;;;;;;;4.37;3.67;;;;;;;18.25;66.68;99870.28;6610905;27;34903;-86
2022/05/24 09:12:16;;;;;;;5.15;3.12;;;;;;;18.84;67.93;99859.59;6611806;27;34290;-85
2022/05/24 09:15:37;;;;;;;4.93;3.30;;;;;;;19.01;64.16;99859.00;6603039;26;33700;-93
2022/05/24 09:19:04;;;;;;;4.35;3.17;;;;;;;18.93;66.11;99870.44;6626257;26;35215;-89
2022/05/24 09:22:07;;;;;;;3.70;3.30;;;;;;;18.74;64.85;99864.09;6589903;27;33666;-89
2022/05/24 09:25:10;;;;;;;5.32;3.00;;;;;;;19.05;61.28;99880.09;6588550;27;33594;-89
2022/05/24 09:28:13;;;;;;;4.87;3.12;;;;;;;18.75;63.37;99873.84;6590259;27;33044;-86
2022/05/24 09:31:33;;;;;;;3.67;3.12;;;;;;;18.37;65.46;99868.34;6609679;27;33880;-86
2022/05/24 09:34:38;;;;;;;3.42;3.12;;;;;;;18.56;64.10;99872.88;6588547;27;32785;-86
2022/05/24 09:37:42;;;;;;;3.47;3.17;;;;;;;18.18;65.20;99869.16;6609710;27;34064;-86
2022/05/24 09:40:47;;;;;;;5.10;3.40;;;;;;;18.91;65.05;99869.75;6611239;27;35049;-85
2022/05/24 09:44:12;;;;;;;6.30;3.22;;;;;;;18.98;60.57;99866.34;6606011;27;33499;-85
2022/05/24 09:47:49;;;;;;;3.55;2.90;;;;;;;19.09;62.66;99877.94;6610680;27;35171;-86
2022/05/24 09:50:53;;;;;;;3.22;2.95;;;;;;;20.43;58.21;99881.38;6596021;27;33839;-87
2022/05/24 09:53:58;;;;;;;2.85;2.60;;;;;;;20.67;59.24;99871.81;6617693;27;34344;-89
2022/05/24 09:57:08;;;;;;;4.20;2.90;;;;;;;21.74;54.58;99869.06;6590410;27;32680;-92
2022/05/24 10:00:24;;;;;;;3.72;3.20;;;;;;;22.79;50.30;99855.28;6586585;26;33854;-89
2022/05/24 10:03:49;;;;;;;6.32;3.00;;;;;;;23.11;50.93;99862.53;6587434;27;34850;-89
2022/05/24 10:06:54;;;;;;;3.25;2.85;;;;;;;23.28;50.05;99871.47;6587028;27;34990;-88
2022/05/24 10:10:00;;;;;;;3.33;3.00;;;;;;;23.16;51.74;99872.84;6565963;27;34801;-89
2022/05/24 10:13:28;;;;;;;6.40;2.80;;;;;;;22.78;52.83;99864.41;6591578;26;34475;-88
2022/05/24 10:16:44;;;;;;;4.97;3.00;;;;;;;23.11;48.79;99886.03;6591640;27;31931;-89
2022/05/24 10:20:07;;;;;;;3.37;3.03;;;;;;;21.85;52.99;99883.25;6593096;27;32375;-91
2022/05/24 10:23:30;;;;;;;4.95;3.35;;;;;;;22.04;52.46;99885.72;6590754;27;33325;-90
2022/05/24 10:26:56;;;;;;;3.67;2.75;;;;;;;21.44;56.65;99873.94;6589402;27;33057;-88
2022/05/24 10:30:05;;;;;;;3.85;3.55;;;;;;;21.64;53.74;99879.09;6611796;27;35186;-92
2022/05/24 10:40:41;;;;;;;5.00;2.90;;;;;;;22.73;51.11;99854.13;6614595;27;34035;-89
2022/05/24 10:44:03;;;;;;;4.05;2.90;;;;;;;22.73;51.91;99837.91;6611147;27;34752;-89
2022/05/24 10:47:25;;;;;;;2.78;2.47;;;;;;;22.72;50.18;99837.03;6610422;27;34297;-89
2022/05/24 10:54:56;;;;;;;4.12;2.75;;;;;;;22.35;50.67;99835.63;6609124;26;20067;-92
2022/05/24 10:58:12;;;;;;;5.43;2.53;;;;;;;23.04;50.58;99847.16;6518972;27;34973;-90
2022/05/24 11:01:52;;;;;;;4.18;2.95;;;;;;;22.32;50.24;99847.63;6502935;27;33386;-89
2022/05/24 11:10:03;;;;;;;4.72;3.20;;;;;;;21.95;51.46;99848.87;6531746;27;35391;-92
2022/05/24 11:13:12;;;;;;;3.67;2.92;;;;;;;22.35;52.23;99847.31;6510097;27;33593;-93
2022/05/24 11:16:21;;;;;;;3.90;2.85;;;;;;;22.33;50.14;99833.09;6526935;27;33762;-91
2022/05/24 11:19:31;;;;;;;5.62;3.22;;;;;;;22.27;49.84;99833.75;6523840;27;35089;-90
2022/05/24 11:22:52;;;;;;;4.93;3.03;;;;;;;22.95;49.54;99830.94;6526227;27;34099;-90
2022/05/24 11:26:10;;;;;;;3.12;2.80;;;;;;;23.50;47.90;99835.75;6507965;27;32713;-91
2022/05/24 11:29:12;;;;;;;7.75;3.10;;;;;;;22.91;50.58;99831.44;6525094;27;34117;-89
2022/05/24 12:23:30;;;;;;;3.30;3.00;;;;;;;22.04;52.14;99793.91;6610667;26;20036;-88
2022/05/24 12:27:12;;;;;;;3.90;3.60;;;;;;;22.24;52.75;99790.88;6607987;26;34948;-89
2022/05/24 12:30:20;;;;;;;3.78;3.25;;;;;;;21.68;53.34;99781.44;6588493;27;33038;-88
2022/05/24 12:33:46;;;;;;;4.05;3.67;;;;;;;21.82;53.95;99781.84;6587221;27;33382;-89
2022/05/24 12:36:51;;;;;;;5.53;3.33;;;;;;;21.64;54.53;99782.78;6590235;27;33698;-91
2022/05/24 12:40:21;;;;;;;7.37;3.62;;;;;;;21.85;54.17;99788.78;6607264;26;34749;-90
2022/05/24 13:06:32;;;;;;;4.30;3.90;;;;;;;22.23;53.26;99758.63;6609863;26;20087;-89
2022/05/24 13:09:42;;;;;;;7.10;3.90;;;;;;;21.47;53.29;99760.28;6590473;27;33270;-88
2022/05/24 13:12:47;;;;;;;5.12;3.72;;;;;;;21.84;54.15;99760.09;6590790;27;33448;-89
2022/05/24 13:42:33;;;;;;;9.48;4.12;;;;;;;21.76;54.22;99753.66;6608452;26;20068;-88
2022/05/24 13:45:38;;;;;;;3.70;3.40;;;;;;;22.39;54.08;99752.38;6588961;27;33083;-88
2022/05/24 13:48:52;;;;;;;5.28;3.40;;;;;;;22.59;51.00;99748.34;6606726;27;34627;-87
2022/05/24 13:52:11;;;;;;;4.97;3.47;;;;;;;22.70;50.95;99739.06;6606411;27;33789;-87
2022/05/24 13:55:18;;;;;;;3.72;3.42;;;;;;;22.39;51.73;99742.44;6586568;27;32809;-86
2022/05/24 13:58:41;;;;;;;4.22;3.37;;;;;;;22.45;50.64;99740.91;6587545;27;33243;-86
2022/05/24 14:01:44;;;;;;;4.30;3.58;;;;;;;22.33;50.20;99743.94;6609709;27;34715;-87
2022/05/24 14:04:47;;;;;;;3.70;3.40;;;;;;;22.25;52.17;99734.97;6589953;27;33435;-87
2022/05/24 14:07:50;;;;;;;4.10;3.75;;;;;;;22.53;51.52;99742.78;6611642;27;34195;-89
2022/05/24 14:10:53;;;;;;;3.50;3.30;;;;;;;22.39;52.03;99744.28;6589703;27;33200;-88
2022/05/24 14:21:28;;;;;;;6.90;3.80;;;;;;;23.08;50.59;99746.56;6607971;26;20390;-87
2022/05/24 14:24:38;;;;;;;3.50;3.20;;;;;;;22.83;50.55;99745.78;6608026;27;33787;-87
2022/05/24 14:27:42;;;;;;;4.22;3.35;;;;;;;22.38;51.66;99732.63;6587409;27;33089;-87
2022/05/24 14:30:46;;;;;;;3.78;3.12;;;;;;;22.22;50.51;99746.97;6607575;27;34159;-88
2022/05/24 14:33:49;;;;;;;3.92;3.60;;;;;;;22.10;51.94;99748.31;6608374;27;34431;-88
2022/05/24 14:36:53;;;;;;;5.35;4.07;;;;;;;22.08;51.34;99748.50;6607597;27;33964;-88
2022/05/24 14:39:56;;;;;;;10.23;7.35;;;;;;;22.06;52.79;99742.41;6608643;27;34589;-88
2022/05/24 14:43:00;;;;;;;11.05;7.32;;;;;;;21.89;53.20;99741.53;6607428;27;34953;-89
2022/05/24 14:46:02;;;;;;;6.78;5.70;;;;;;;22.06;53.29;99739.69;6608014;27;33472;-88
2022/05/24 14:49:08;;;;;;;8.77;5.35;;;;;;;22.26;52.92;99748.34;6609187;27;34752;-88
2022/05/24 14:52:13;;;;;;;4.78;3.90;;;;;;;21.94;52.49;99750.00;6589462;27;34170;-88
2022/05/24 14:55:22;;;;;;;3.80;3.42;;;;;;;21.93;53.18;99746.44;6588228;27;33678;-88
2022/05/24 14:58:26;;;;;;;5.30;4.70;;;;;;;21.66;53.11;99748.38;6607943;26;34128;-88
2022/05/24 15:01:29;;;;;;;13.20;8.40;;;;;;;21.76;53.23;99742.87;6595888;27;34105;-89
2022/05/24 15:04:34;;;;;;;11.12;7.65;;;;;;;21.62;51.62;99752.41;6609790;26;34379;-88
2022/05/24 15:17:58;;;;;;;4.60;3.50;;;;;;;21.93;50.47;99735.63;6608909;27;34064;-88
2022/05/24 15:21:02;;;;;;;4.85;3.70;;;;;;;21.59;49.50;99730.31;6590967;27;32387;-87
2022/05/24 15:24:10;;;;;;;9.75;4.47;;;;;;;21.74;49.89;99734.09;6591132;27;33810;-87
2022/05/24 15:27:14;;;;;;;7.90;4.37;;;;;;;21.77;51.71;99741.84;6589159;27;33422;-88
2022/05/24 15:30:18;;;;;;;11.12;5.47;;;;;;;21.60;52.21;99743.63;6569828;27;33177;-87
2022/05/24 15:33:22;;;;;;;7.07;5.35;;;;;;;21.53;52.94;99738.03;6607551;27;33688;-88
